sensor_id;sensor_type;location;lat;lon;timestamp;P1;durP1;ratioP1;P2;durP2;ratioP2
3901;SDS011;1966;49.908;9.156;2023-03-23T00:02:29;2.90;;;2.60;;
3901;SDS011;1966;49.908;9.156;2023-03-23T00:07:32;5.63;;;2.73;;
3901;SDS011;1966;49.908;9.156;2023-03-23T00:12:31;3.37;;;3.07;;
3901;SDS011;1966;49.908;9.156;2023-03-23T00:17:32;3.50;;;2.77;;
3901;SDS011;1966;49.908;9.156;2023-03-23T00:22:33;2.70;;;2.50;;
3901;SDS011;1966;49.908;9.156;2023-03-23T00:27:35;2.93;;;2.30;;
3901;SDS011;1966;49.908;9.156;2023-03-23T00:32:34;3.00;;;2.30;;
3901;SDS011;1966;49.908;9.156;2023-03-23T00:37:35;3.17;;;2.03;;
3901;SDS011;1966;49.908;9.156;2023-03-23T00:42:35;2.67;;;2.00;;
3901;SDS011;1966;49.908;9.156;2023-03-23T00:47:36;2.40;;;1.83;;
3901;SDS011;1966;49.908;9.156;2023-03-23T00:52:36;2.10;;;1.90;;
3901;SDS011;1966;49.908;9.156;2023-03-23T00:57:35;3.30;;;2.23;;
3901;SDS011;1966;49.908;9.156;2023-03-23T01:02:35;2.80;;;2.50;;
3901;SDS011;1966;49.908;9.156;2023-03-23T01:07:34;5.10;;;2.53;;
3901;SDS011;1966;49.908;9.156;2023-03-23T01:12:35;2.50;;;2.27;;
3901;SDS011;1966;49.908;9.156;2023-03-23T01:17:34;2.30;;;2.10;;
3901;SDS011;1966;49.908;9.156;2023-03-23T01:22:33;4.20;;;2.43;;
3901;SDS011;1966;49.908;9.156;2023-03-23T01:27:34;2.10;;;2.00;;
3901;SDS011;1966;49.908;9.156;2023-03-23T01:32:34;4.00;;;2.13;;
3901;SDS011;1966;49.908;9.156;2023-03-23T01:37:33;2.60;;;2.30;;
3901;SDS011;1966;49.908;9.156;2023-03-23T01:42:36;2.90;;;2.37;;
3901;SDS011;1966;49.908;9.156;2023-03-23T01:47:36;1.80;;;1.63;;
3901;SDS011;1966;49.908;9.156;2023-03-23T01:52:35;2.20;;;2.00;;
3901;SDS011;1966;49.908;9.156;2023-03-23T01:57:37;2.10;;;1.97;;
3901;SDS011;1966;49.908;9.156;2023-03-23T02:02:36;2.30;;;2.10;;
3901;SDS011;1966;49.908;9.156;2023-03-23T02:07:36;2.20;;;2.00;;
3901;SDS011;1966;49.908;9.156;2023-03-23T02:12:37;2.20;;;2.00;;
3901;SDS011;1966;49.908;9.156;2023-03-23T02:17:37;2.60;;;2.40;;
3901;SDS011;1966;49.908;9.156;2023-03-23T02:22:47;3.20;;;2.10;;
3901;SDS011;1966;49.908;9.156;2023-03-23T02:27:57;2.77;;;2.00;;
3901;SDS011;1966;49.908;9.156;2023-03-23T02:33:12;2.43;;;1.80;;
3901;SDS011;1966;49.908;9.156;2023-03-23T02:38:16;2.23;;;2.10;;
3901;SDS011;1966;49.908;9.156;2023-03-23T02:43:17;2.13;;;1.90;;
3901;SDS011;1966;49.908;9.156;2023-03-23T02:48:20;2.40;;;1.97;;
3901;SDS011;1966;49.908;9.156;2023-03-23T02:53:20;2.50;;;1.90;;
3901;SDS011;1966;49.908;9.156;2023-03-23T02:58:20;1.83;;;1.73;;
3901;SDS011;1966;49.908;9.156;2023-03-23T03:03:21;1.97;;;1.70;;
3901;SDS011;1966;49.908;9.156;2023-03-23T03:08:22;2.10;;;1.97;;
3901;SDS011;1966;49.908;9.156;2023-03-23T03:13:25;2.03;;;1.83;;
3901;SDS011;1966;49.908;9.156;2023-03-23T03:18:30;2.03;;;1.93;;
3901;SDS011;1966;49.908;9.156;2023-03-23T03:23:30;2.27;;;2.10;;
3901;SDS011;1966;49.908;9.156;2023-03-23T03:28:31;3.17;;;2.00;;
3901;SDS011;1966;49.908;9.156;2023-03-23T03:33:32;2.10;;;2.00;;
3901;SDS011;1966;49.908;9.156;2023-03-23T03:38:40;2.40;;;1.80;;
3901;SDS011;1966;49.908;9.156;2023-03-23T03:43:40;2.07;;;1.90;;
3901;SDS011;1966;49.908;9.156;2023-03-23T03:48:41;2.10;;;1.97;;
3901;SDS011;1966;49.908;9.156;2023-03-23T03:53:40;2.23;;;2.07;;
3901;SDS011;1966;49.908;9.156;2023-03-23T03:58:39;2.93;;;2.30;;
3901;SDS011;1966;49.908;9.156;2023-03-23T04:03:41;2.23;;;2.00;;
3901;SDS011;1966;49.908;9.156;2023-03-23T04:08:40;3.20;;;2.67;;
3901;SDS011;1966;49.908;9.156;2023-03-23T04:13:41;2.20;;;2.10;;
3901;SDS011;1966;49.908;9.156;2023-03-23T04:18:42;2.80;;;1.90;;
3901;SDS011;1966;49.908;9.156;2023-03-23T04:23:41;2.50;;;2.23;;
3901;SDS011;1966;49.908;9.156;2023-03-23T04:28:40;2.50;;;2.30;;
3901;SDS011;1966;49.908;9.156;2023-03-23T04:33:40;2.73;;;2.53;;
3901;SDS011;1966;49.908;9.156;2023-03-23T04:38:41;2.03;;;1.93;;
3901;SDS011;1966;49.908;9.156;2023-03-23T04:43:40;2.37;;;2.17;;
3901;SDS011;1966;49.908;9.156;2023-03-23T04:48:40;1.93;;;1.83;;
3901;SDS011;1966;49.908;9.156;2023-03-23T04:53:40;3.03;;;2.60;;
3901;SDS011;1966;49.908;9.156;2023-03-23T04:58:40;2.60;;;2.40;;
3901;SDS011;1966;49.908;9.156;2023-03-23T05:03:39;2.60;;;2.40;;
3901;SDS011;1966;49.908;9.156;2023-03-23T05:08:38;3.63;;;2.40;;
3901;SDS011;1966;49.908;9.156;2023-03-23T05:13:39;2.70;;;2.50;;
3901;SDS011;1966;49.908;9.156;2023-03-23T05:18:38;2.60;;;2.40;;
3901;SDS011;1966;49.908;9.156;2023-03-23T05:23:38;4.10;;;2.63;;
3901;SDS011;1966;49.908;9.156;2023-03-23T05:28:39;2.47;;;2.27;;
3901;SDS011;1966;49.908;9.156;2023-03-23T05:33:39;2.80;;;2.60;;
3901;SDS011;1966;49.908;9.156;2023-03-23T05:38:39;2.87;;;2.63;;
3901;SDS011;1966;49.908;9.156;2023-03-23T05:43:41;3.37;;;2.60;;
3901;SDS011;1966;49.908;9.156;2023-03-23T05:48:40;3.53;;;2.50;;
3901;SDS011;1966;49.908;9.156;2023-03-23T05:53:40;2.60;;;2.40;;
3901;SDS011;1966;49.908;9.156;2023-03-23T05:58:39;7.13;;;2.20;;
3901;SDS011;1966;49.908;9.156;2023-03-23T06:03:40;3.30;;;2.60;;
3901;SDS011;1966;49.908;9.156;2023-03-23T06:08:39;7.00;;;2.70;;
3901;SDS011;1966;49.908;9.156;2023-03-23T06:13:38;2.70;;;2.50;;
3901;SDS011;1966;49.908;9.156;2023-03-23T06:18:38;3.57;;;2.27;;
3901;SDS011;1966;49.908;9.156;2023-03-23T06:23:39;2.60;;;2.40;;
3901;SDS011;1966;49.908;9.156;2023-03-23T06:28:39;5.37;;;3.60;;
3901;SDS011;1966;49.908;9.156;2023-03-23T06:33:38;4.70;;;2.93;;
3901;SDS011;1966;49.908;9.156;2023-03-23T06:38:40;5.37;;;3.73;;
3901;SDS011;1966;49.908;9.156;2023-03-23T06:43:39;4.70;;;3.60;;
3901;SDS011;1966;49.908;9.156;2023-03-23T06:48:38;2.73;;;2.47;;
3901;SDS011;1966;49.908;9.156;2023-03-23T06:53:39;3.50;;;2.73;;
3901;SDS011;1966;49.908;9.156;2023-03-23T06:58:38;3.73;;;2.00;;
3901;SDS011;1966;49.908;9.156;2023-03-23T07:03:40;2.20;;;2.00;;
3901;SDS011;1966;49.908;9.156;2023-03-23T07:08:41;2.50;;;2.30;;
3901;SDS011;1966;49.908;9.156;2023-03-23T07:13:41;2.70;;;2.50;;
3901;SDS011;1966;49.908;9.156;2023-03-23T07:18:40;2.67;;;2.47;;
3901;SDS011;1966;49.908;9.156;2023-03-23T07:23:39;2.90;;;2.33;;
3901;SDS011;1966;49.908;9.156;2023-03-23T07:28:40;2.40;;;2.20;;
3901;SDS011;1966;49.908;9.156;2023-03-23T07:33:40;2.40;;;2.20;;
3901;SDS011;1966;49.908;9.156;2023-03-23T07:38:39;2.27;;;2.17;;
3901;SDS011;1966;49.908;9.156;2023-03-23T07:43:40;5.03;;;2.80;;
3901;SDS011;1966;49.908;9.156;2023-03-23T07:48:40;1.97;;;1.80;;
3901;SDS011;1966;49.908;9.156;2023-03-23T07:53:39;2.80;;;2.37;;
3901;SDS011;1966;49.908;9.156;2023-03-23T07:58:40;2.30;;;2.10;;
3901;SDS011;1966;49.908;9.156;2023-03-23T08:03:39;3.03;;;2.03;;
3901;SDS011;1966;49.908;9.156;2023-03-23T08:08:39;2.53;;;2.30;;
3901;SDS011;1966;49.908;9.156;2023-03-23T08:13:38;1.97;;;1.87;;
3901;SDS011;1966;49.908;9.156;2023-03-23T08:18:39;2.50;;;2.30;;
3901;SDS011;1966;49.908;9.156;2023-03-23T08:23:39;3.07;;;2.13;;
3901;SDS011;1966;49.908;9.156;2023-03-23T08:28:38;3.23;;;2.53;;
3901;SDS011;1966;49.908;9.156;2023-03-23T08:33:39;2.80;;;2.23;;
3901;SDS011;1966;49.908;9.156;2023-03-23T08:38:39;2.93;;;2.33;;
3901;SDS011;1966;49.908;9.156;2023-03-23T08:43:38;6.80;;;3.03;;
3901;SDS011;1966;49.908;9.156;2023-03-23T08:48:39;4.20;;;2.80;;
3901;SDS011;1966;49.908;9.156;2023-03-23T08:53:38;6.67;;;3.70;;
3901;SDS011;1966;49.908;9.156;2023-03-23T08:58:40;5.53;;;4.37;;
3901;SDS011;1966;49.908;9.156;2023-03-23T09:03:40;6.67;;;3.50;;
3901;SDS011;1966;49.908;9.156;2023-03-23T09:08:40;5.67;;;4.17;;
3901;SDS011;1966;49.908;9.156;2023-03-23T09:13:39;6.60;;;4.33;;
3901;SDS011;1966;49.908;9.156;2023-03-23T09:18:40;4.20;;;2.60;;
3901;SDS011;1966;49.908;9.156;2023-03-23T09:23:39;3.33;;;2.40;;
3901;SDS011;1966;49.908;9.156;2023-03-23T09:28:42;2.63;;;2.43;;
3901;SDS011;1966;49.908;9.156;2023-03-23T09:33:43;5.60;;;4.03;;
3901;SDS011;1966;49.908;9.156;2023-03-23T09:38:44;3.07;;;1.97;;
3901;SDS011;1966;49.908;9.156;2023-03-23T09:43:46;1.90;;;1.80;;
3901;SDS011;1966;49.908;9.156;2023-03-23T09:48:51;2.13;;;2.00;;
3901;SDS011;1966;49.908;9.156;2023-03-23T09:53:51;1.67;;;1.57;;
3901;SDS011;1966;49.908;9.156;2023-03-23T09:58:53;1.50;;;1.40;;
3901;SDS011;1966;49.908;9.156;2023-03-23T10:03:58;2.00;;;1.73;;
3901;SDS011;1966;49.908;9.156;2023-03-23T10:09:00;1.77;;;1.67;;
3901;SDS011;1966;49.908;9.156;2023-03-23T10:14:07;2.00;;;1.90;;
3901;SDS011;1966;49.908;9.156;2023-03-23T10:19:12;1.97;;;1.87;;
3901;SDS011;1966;49.908;9.156;2023-03-23T10:24:15;2.10;;;1.70;;
3901;SDS011;1966;49.908;9.156;2023-03-23T10:29:16;2.33;;;1.80;;
3901;SDS011;1966;49.908;9.156;2023-03-23T10:34:18;1.90;;;1.80;;
3901;SDS011;1966;49.908;9.156;2023-03-23T10:39:20;1.73;;;1.63;;
3901;SDS011;1966;49.908;9.156;2023-03-23T10:44:21;1.70;;;1.60;;
3901;SDS011;1966;49.908;9.156;2023-03-23T10:49:25;1.70;;;1.60;;
3901;SDS011;1966;49.908;9.156;2023-03-23T10:54:26;1.70;;;1.60;;
3901;SDS011;1966;49.908;9.156;2023-03-23T10:59:27;1.77;;;1.67;;
3901;SDS011;1966;49.908;9.156;2023-03-23T11:04:27;2.07;;;1.50;;
3901;SDS011;1966;49.908;9.156;2023-03-23T11:09:34;2.13;;;1.80;;
3901;SDS011;1966;49.908;9.156;2023-03-23T11:14:34;2.50;;;1.50;;
3901;SDS011;1966;49.908;9.156;2023-03-23T11:19:38;1.70;;;1.60;;
3901;SDS011;1966;49.908;9.156;2023-03-23T11:24:40;1.60;;;1.50;;
3901;SDS011;1966;49.908;9.156;2023-03-23T11:29:47;3.73;;;2.00;;
3901;SDS011;1966;49.908;9.156;2023-03-23T11:34:52;1.20;;;1.10;;
3901;SDS011;1966;49.908;9.156;2023-03-23T11:39:54;5.70;;;1.80;;
3901;SDS011;1966;49.908;9.156;2023-03-23T11:44:54;1.40;;;1.30;;
3901;SDS011;1966;49.908;9.156;2023-03-23T11:49:59;1.93;;;1.27;;
3901;SDS011;1966;49.908;9.156;2023-03-23T11:55:00;1.60;;;1.50;;
3901;SDS011;1966;49.908;9.156;2023-03-23T12:00:10;2.00;;;1.73;;
3901;SDS011;1966;49.908;9.156;2023-03-23T12:10:30;3.57;;;1.77;;
3901;SDS011;1966;49.908;9.156;2023-03-23T12:15:35;2.10;;;1.90;;
3901;SDS011;1966;49.908;9.156;2023-03-23T12:20:38;3.27;;;2.10;;
3901;SDS011;1966;49.908;9.156;2023-03-23T12:25:45;2.07;;;1.80;;
3901;SDS011;1966;49.908;9.156;2023-03-23T12:30:48;2.53;;;2.30;;
3901;SDS011;1966;49.908;9.156;2023-03-23T12:35:52;2.47;;;1.63;;
3901;SDS011;1966;49.908;9.156;2023-03-23T12:41:01;2.40;;;2.20;;
3901;SDS011;1966;49.908;9.156;2023-03-23T12:46:04;3.10;;;2.27;;
3901;SDS011;1966;49.908;9.156;2023-03-23T12:51:17;1.97;;;1.87;;
3901;SDS011;1966;49.908;9.156;2023-03-23T12:56:20;1.80;;;1.70;;
3901;SDS011;1966;49.908;9.156;2023-03-23T13:01:21;1.60;;;1.50;;
3901;SDS011;1966;49.908;9.156;2023-03-23T13:06:23;1.87;;;1.53;;
3901;SDS011;1966;49.908;9.156;2023-03-23T13:11:28;1.83;;;1.70;;
3901;SDS011;1966;49.908;9.156;2023-03-23T13:16:30;1.80;;;1.70;;
3901;SDS011;1966;49.908;9.156;2023-03-23T13:21:32;1.90;;;1.80;;
3901;SDS011;1966;49.908;9.156;2023-03-23T13:26:38;2.10;;;1.93;;
3901;SDS011;1966;49.908;9.156;2023-03-23T13:31:38;1.80;;;1.70;;
3901;SDS011;1966;49.908;9.156;2023-03-23T13:36:38;1.83;;;1.73;;
3901;SDS011;1966;49.908;9.156;2023-03-23T13:41:46;2.50;;;1.90;;
3901;SDS011;1966;49.908;9.156;2023-03-23T13:46:56;3.70;;;2.40;;
3901;SDS011;1966;49.908;9.156;2023-03-23T13:52:00;2.03;;;1.83;;
3901;SDS011;1966;49.908;9.156;2023-03-23T13:57:18;1.90;;;1.80;;
3901;SDS011;1966;49.908;9.156;2023-03-23T14:02:29;1.73;;;1.63;;
3901;SDS011;1966;49.908;9.156;2023-03-23T14:07:29;1.50;;;1.40;;
3901;SDS011;1966;49.908;9.156;2023-03-23T14:12:30;2.07;;;1.87;;
3901;SDS011;1966;49.908;9.156;2023-03-23T14:17:31;1.90;;;1.70;;
3901;SDS011;1966;49.908;9.156;2023-03-23T14:22:32;1.90;;;1.73;;
3901;SDS011;1966;49.908;9.156;2023-03-23T14:27:34;2.00;;;1.80;;
3901;SDS011;1966;49.908;9.156;2023-03-23T14:32:33;1.80;;;1.70;;
3901;SDS011;1966;49.908;9.156;2023-03-23T14:37:33;2.80;;;2.50;;
3901;SDS011;1966;49.908;9.156;2023-03-23T14:42:35;3.20;;;1.77;;
3901;SDS011;1966;49.908;9.156;2023-03-23T14:47:35;3.40;;;1.83;;
3901;SDS011;1966;49.908;9.156;2023-03-23T14:52:36;4.90;;;1.83;;
3901;SDS011;1966;49.908;9.156;2023-03-23T14:57:41;2.30;;;2.10;;
3901;SDS011;1966;49.908;9.156;2023-03-23T15:02:40;2.00;;;1.83;;
3901;SDS011;1966;49.908;9.156;2023-03-23T15:07:40;2.43;;;2.23;;
3901;SDS011;1966;49.908;9.156;2023-03-23T15:12:42;4.47;;;2.50;;
3901;SDS011;1966;49.908;9.156;2023-03-23T15:17:44;3.40;;;2.77;;
3901;SDS011;1966;49.908;9.156;2023-03-23T15:22:45;2.50;;;2.30;;
3901;SDS011;1966;49.908;9.156;2023-03-23T15:27:50;4.23;;;1.87;;
3901;SDS011;1966;49.908;9.156;2023-03-23T15:32:50;2.80;;;2.60;;
3901;SDS011;1966;49.908;9.156;2023-03-23T15:37:51;2.57;;;2.30;;
3901;SDS011;1966;49.908;9.156;2023-03-23T15:43:05;2.40;;;2.20;;
3901;SDS011;1966;49.908;9.156;2023-03-23T15:48:10;2.90;;;2.60;;
3901;SDS011;1966;49.908;9.156;2023-03-23T15:53:17;2.30;;;2.10;;
3901;SDS011;1966;49.908;9.156;2023-03-23T15:58:18;3.70;;;2.10;;
3901;SDS011;1966;49.908;9.156;2023-03-23T16:03:19;2.27;;;2.07;;
3901;SDS011;1966;49.908;9.156;2023-03-23T16:08:19;2.50;;;2.03;;
3901;SDS011;1966;49.908;9.156;2023-03-23T16:13:20;2.73;;;2.27;;
3901;SDS011;1966;49.908;9.156;2023-03-23T16:18:20;4.20;;;2.90;;
3901;SDS011;1966;49.908;9.156;2023-03-23T16:23:20;2.80;;;2.60;;
3901;SDS011;1966;49.908;9.156;2023-03-23T16:28:20;4.63;;;3.30;;
3901;SDS011;1966;49.908;9.156;2023-03-23T16:33:20;3.13;;;2.50;;
3901;SDS011;1966;49.908;9.156;2023-03-23T16:38:19;3.10;;;2.80;;
3901;SDS011;1966;49.908;9.156;2023-03-23T16:43:18;2.40;;;2.20;;
3901;SDS011;1966;49.908;9.156;2023-03-23T16:48:19;3.07;;;1.93;;
3901;SDS011;1966;49.908;9.156;2023-03-23T16:53:20;1.93;;;1.83;;
3901;SDS011;1966;49.908;9.156;2023-03-23T16:58:19;2.80;;;2.60;;
3901;SDS011;1966;49.908;9.156;2023-03-23T17:03:20;2.10;;;1.90;;
3901;SDS011;1966;49.908;9.156;2023-03-23T17:08:19;2.23;;;2.00;;
3901;SDS011;1966;49.908;9.156;2023-03-23T17:13:19;2.33;;;2.23;;
3901;SDS011;1966;49.908;9.156;2023-03-23T17:18:19;5.30;;;3.27;;
3901;SDS011;1966;49.908;9.156;2023-03-23T17:23:19;3.50;;;2.53;;
3901;SDS011;1966;49.908;9.156;2023-03-23T17:28:18;2.27;;;2.00;;
3901;SDS011;1966;49.908;9.156;2023-03-23T17:33:17;2.10;;;1.90;;
3901;SDS011;1966;49.908;9.156;2023-03-23T17:38:18;2.50;;;2.30;;
3901;SDS011;1966;49.908;9.156;2023-03-23T17:43:18;2.13;;;2.03;;
3901;SDS011;1966;49.908;9.156;2023-03-23T17:48:17;3.00;;;2.20;;
3901;SDS011;1966;49.908;9.156;2023-03-23T17:53:18;3.20;;;2.90;;
3901;SDS011;1966;49.908;9.156;2023-03-23T17:58:17;3.67;;;3.03;;
3901;SDS011;1966;49.908;9.156;2023-03-23T18:03:16;6.50;;;3.60;;
3901;SDS011;1966;49.908;9.156;2023-03-23T18:08:16;6.13;;;5.07;;
3901;SDS011;1966;49.908;9.156;2023-03-23T18:13:17;4.70;;;4.30;;
3901;SDS011;1966;49.908;9.156;2023-03-23T18:18:16;6.17;;;3.90;;
3901;SDS011;1966;49.908;9.156;2023-03-23T18:23:15;4.37;;;3.97;;
3901;SDS011;1966;49.908;9.156;2023-03-23T18:28:14;5.03;;;4.37;;
3901;SDS011;1966;49.908;9.156;2023-03-23T18:33:15;4.93;;;4.13;;
3901;SDS011;1966;49.908;9.156;2023-03-23T18:38:15;4.23;;;3.83;;
3901;SDS011;1966;49.908;9.156;2023-03-23T18:43:14;5.17;;;4.53;;
3901;SDS011;1966;49.908;9.156;2023-03-23T18:48:13;6.60;;;5.33;;
3901;SDS011;1966;49.908;9.156;2023-03-23T18:53:14;10.07;;;7.30;;
3901;SDS011;1966;49.908;9.156;2023-03-23T18:58:14;7.30;;;5.67;;
3901;SDS011;1966;49.908;9.156;2023-03-23T19:03:14;8.00;;;6.77;;
3901;SDS011;1966;49.908;9.156;2023-03-23T19:08:15;8.40;;;5.30;;
3901;SDS011;1966;49.908;9.156;2023-03-23T19:13:15;8.20;;;6.07;;
3901;SDS011;1966;49.908;9.156;2023-03-23T19:18:15;7.10;;;6.40;;
3901;SDS011;1966;49.908;9.156;2023-03-23T19:23:16;6.27;;;5.77;;
3901;SDS011;1966;49.908;9.156;2023-03-23T19:28:15;6.13;;;5.53;;
3901;SDS011;1966;49.908;9.156;2023-03-23T19:33:16;5.30;;;4.80;;
3901;SDS011;1966;49.908;9.156;2023-03-23T19:38:16;8.70;;;4.17;;
3901;SDS011;1966;49.908;9.156;2023-03-23T19:43:16;7.10;;;3.37;;
3901;SDS011;1966;49.908;9.156;2023-03-23T19:48:15;2.60;;;2.40;;
3901;SDS011;1966;49.908;9.156;2023-03-23T19:53:15;3.30;;;3.00;;
3901;SDS011;1966;49.908;9.156;2023-03-23T19:58:15;6.37;;;4.90;;
3901;SDS011;1966;49.908;9.156;2023-03-23T20:03:15;3.83;;;3.33;;
3901;SDS011;1966;49.908;9.156;2023-03-23T20:08:14;3.23;;;2.80;;
3901;SDS011;1966;49.908;9.156;2023-03-23T20:13:14;9.40;;;5.20;;
3901;SDS011;1966;49.908;9.156;2023-03-23T20:18:14;5.33;;;3.70;;
3901;SDS011;1966;49.908;9.156;2023-03-23T20:23:15;5.70;;;4.50;;
3901;SDS011;1966;49.908;9.156;2023-03-23T20:28:14;6.03;;;4.33;;
3901;SDS011;1966;49.908;9.156;2023-03-23T20:33:15;11.60;;;7.83;;
3901;SDS011;1966;49.908;9.156;2023-03-23T20:38:16;9.73;;;7.30;;
3901;SDS011;1966;49.908;9.156;2023-03-23T20:43:15;12.40;;;8.37;;
3901;SDS011;1966;49.908;9.156;2023-03-23T20:48:17;11.70;;;8.20;;
3901;SDS011;1966;49.908;9.156;2023-03-23T20:53:16;9.47;;;7.67;;
3901;SDS011;1966;49.908;9.156;2023-03-23T20:58:15;8.57;;;6.00;;
3901;SDS011;1966;49.908;9.156;2023-03-23T21:03:16;5.80;;;5.10;;
3901;SDS011;1966;49.908;9.156;2023-03-23T21:08:16;7.90;;;5.40;;
3901;SDS011;1966;49.908;9.156;2023-03-23T21:13:16;7.77;;;4.90;;
3901;SDS011;1966;49.908;9.156;2023-03-23T21:18:17;7.73;;;5.50;;
3901;SDS011;1966;49.908;9.156;2023-03-23T21:23:16;6.57;;;5.47;;
3901;SDS011;1966;49.908;9.156;2023-03-23T21:28:16;7.40;;;5.03;;
3901;SDS011;1966;49.908;9.156;2023-03-23T21:33:17;7.77;;;5.87;;
3901;SDS011;1966;49.908;9.156;2023-03-23T21:38:17;6.10;;;5.30;;
3901;SDS011;1966;49.908;9.156;2023-03-23T21:43:16;7.40;;;5.67;;
3901;SDS011;1966;49.908;9.156;2023-03-23T21:48:18;9.07;;;6.10;;
3901;SDS011;1966;49.908;9.156;2023-03-23T21:53:19;6.47;;;5.57;;
3901;SDS011;1966;49.908;9.156;2023-03-23T21:58:18;6.97;;;5.60;;
3901;SDS011;1966;49.908;9.156;2023-03-23T22:03:19;6.40;;;5.20;;
3901;SDS011;1966;49.908;9.156;2023-03-23T22:08:19;8.27;;;6.10;;
3901;SDS011;1966;49.908;9.156;2023-03-23T22:13:19;7.63;;;6.03;;
3901;SDS011;1966;49.908;9.156;2023-03-23T22:18:20;7.70;;;5.77;;
3901;SDS011;1966;49.908;9.156;2023-03-23T22:23:20;8.67;;;5.80;;
3901;SDS011;1966;49.908;9.156;2023-03-23T22:28:20;13.77;;;9.30;;
3901;SDS011;1966;49.908;9.156;2023-03-23T22:33:21;12.90;;;7.23;;
3901;SDS011;1966;49.908;9.156;2023-03-23T22:38:20;11.50;;;7.37;;
3901;SDS011;1966;49.908;9.156;2023-03-23T22:43:20;9.83;;;6.50;;
3901;SDS011;1966;49.908;9.156;2023-03-23T22:48:21;8.77;;;6.10;;
3901;SDS011;1966;49.908;9.156;2023-03-23T22:53:20;7.43;;;6.13;;
3901;SDS011;1966;49.908;9.156;2023-03-23T22:58:20;6.70;;;5.37;;
3901;SDS011;1966;49.908;9.156;2023-03-23T23:03:21;8.10;;;5.63;;
3901;SDS011;1966;49.908;9.156;2023-03-23T23:08:21;7.10;;;5.30;;
3901;SDS011;1966;49.908;9.156;2023-03-23T23:13:20;5.70;;;5.10;;
3901;SDS011;1966;49.908;9.156;2023-03-23T23:18:21;9.23;;;5.70;;
3901;SDS011;1966;49.908;9.156;2023-03-23T23:23:21;8.07;;;5.20;;
3901;SDS011;1966;49.908;9.156;2023-03-23T23:28:20;6.73;;;5.40;;
3901;SDS011;1966;49.908;9.156;2023-03-23T23:33:22;5.37;;;4.63;;
3901;SDS011;1966;49.908;9.156;2023-03-23T23:38:21;5.67;;;5.07;;
3901;SDS011;1966;49.908;9.156;2023-03-23T23:43:20;7.37;;;4.60;;
3901;SDS011;1966;49.908;9.156;2023-03-23T23:48:20;6.70;;;5.10;;
3901;SDS011;1966;49.908;9.156;2023-03-23T23:53:21;7.20;;;5.53;;
3901;SDS011;1966;49.908;9.156;2023-03-23T23:58:22;6.07;;;5.07;;
